sensor_id;sensor_type;location;lat;lon;timestamp;pressure;altitude;pressure_sealevel;temperature;humidity
5814;BME280;2933;52.302;8.134;2022-11-20T00:01:34;100289.41;;;-5.94;100.00
5814;BME280;2933;52.302;8.134;2022-11-20T00:06:36;100272.44;;;-6.07;100.00
5814;BME280;2933;52.302;8.134;2022-11-20T00:11:39;100271.63;;;-6.00;100.00
5814;BME280;2933;52.302;8.134;2022-11-20T00:16:41;100280.00;;;-6.24;100.00
5814;BME280;2933;52.302;8.134;2022-11-20T00:21:42;100270.72;;;-6.08;100.00
5814;BME280;2933;52.302;8.134;2022-11-20T00:26:45;100270.72;;;-6.14;100.00
5814;BME280;2933;52.302;8.134;2022-11-20T00:31:47;100257.16;;;-6.15;100.00
5814;BME280;2933;52.302;8.134;2022-11-20T00:36:48;100245.22;;;-6.30;100.00
5814;BME280;2933;52.302;8.134;2022-11-20T00:41:51;100271.53;;;-6.15;100.00
5814;BME280;2933;52.302;8.134;2022-11-20T00:46:53;100275.81;;;-6.07;100.00
5814;BME280;2933;52.302;8.134;2022-11-20T00:51:54;100269.06;;;-5.91;100.00
5814;BME280;2933;52.302;8.134;2022-11-20T00:56:57;100268.19;;;-5.94;100.00
5814;BME280;2933;52.302;8.134;2022-11-20T01:01:59;100266.47;;;-6.11;100.00
5814;BME280;2933;52.302;8.134;2022-11-20T01:07:00;100249.44;;;-6.32;100.00
5814;BME280;2933;52.302;8.134;2022-11-20T01:12:03;100256.28;;;-6.17;100.00
5814;BME280;2933;52.302;8.134;2022-11-20T01:17:05;100231.69;;;-6.27;100.00
5814;BME280;2933;52.302;8.134;2022-11-20T01:22:06;100259.66;;;-6.20;100.00
5814;BME280;2933;52.302;8.134;2022-11-20T01:27:09;100252.00;;;-6.32;100.00
5814;BME280;2933;52.302;8.134;2022-11-20T01:32:11;100246.88;;;-6.38;100.00
5814;BME280;2933;52.302;8.134;2022-11-20T01:37:12;100251.97;;;-6.40;100.00
5814;BME280;2933;52.302;8.134;2022-11-20T01:42:15;100241.75;;;-6.44;100.00
5814;BME280;2933;52.302;8.134;2022-11-20T01:47:37;100226.50;;;-6.46;100.00
5814;BME280;2933;52.302;8.134;2022-11-20T01:52:43;100241.78;;;-6.37;100.00
5814;BME280;2933;52.302;8.134;2022-11-20T01:57:48;100235.88;;;-6.37;100.00
5814;BME280;2933;52.302;8.134;2022-11-20T02:02:52;100239.31;;;-6.29;100.00
5814;BME280;2933;52.302;8.134;2022-11-20T02:07:56;100235.00;;;-6.44;100.00
5814;BME280;2933;52.302;8.134;2022-11-20T02:13:00;100214.59;;;-6.62;100.00
5814;BME280;2933;52.302;8.134;2022-11-20T02:18:20;100212.06;;;-6.55;100.00
5814;BME280;2933;52.302;8.134;2022-11-20T02:23:26;100208.69;;;-6.49;100.00
5814;BME280;2933;52.302;8.134;2022-11-20T02:28:31;100200.19;;;-6.63;100.00
5814;BME280;2933;52.302;8.134;2022-11-20T02:33:32;100171.31;;;-6.79;100.00
5814;BME280;2933;52.302;8.134;2022-11-20T02:38:34;100196.72;;;-6.79;100.00
5814;BME280;2933;52.302;8.134;2022-11-20T02:43:37;100200.22;;;-6.56;100.00
5814;BME280;2933;52.302;8.134;2022-11-20T02:48:39;100191.72;;;-6.59;100.00
5814;BME280;2933;52.302;8.134;2022-11-20T02:53:40;100195.16;;;-6.50;100.00
5814;BME280;2933;52.302;8.134;2022-11-20T02:58:43;100184.88;;;-6.74;100.00
5814;BME280;2933;52.302;8.134;2022-11-20T03:03:45;100184.03;;;-6.72;100.00
5814;BME280;2933;52.302;8.134;2022-11-20T03:08:48;100195.91;;;-6.72;100.00
5814;BME280;2933;52.302;8.134;2022-11-20T03:13:51;100196.00;;;-6.51;100.00
5814;BME280;2933;52.302;8.134;2022-11-20T03:18:53;100189.16;;;-6.66;100.00
5814;BME280;2933;52.302;8.134;2022-11-20T03:23:54;100191.69;;;-6.67;100.00
5814;BME280;2933;52.302;8.134;2022-11-20T03:28:59;100168.00;;;-6.58;100.00
5814;BME280;2933;52.302;8.134;2022-11-20T03:34:02;100163.75;;;-6.59;100.00
5814;BME280;2933;52.302;8.134;2022-11-20T03:39:04;100173.88;;;-6.72;100.00
5814;BME280;2933;52.302;8.134;2022-11-20T03:44:08;100172.16;;;-6.73;100.00
5814;BME280;2933;52.302;8.134;2022-11-20T03:49:10;100163.72;;;-6.72;100.00
5814;BME280;2933;52.302;8.134;2022-11-20T03:54:11;100162.88;;;-6.72;100.00
5814;BME280;2933;52.302;8.134;2022-11-20T03:59:14;100121.19;;;-7.10;100.00
5814;BME280;2933;52.302;8.134;2022-11-20T04:04:16;100148.28;;;-7.09;100.00
5814;BME280;2933;52.302;8.134;2022-11-20T04:09:17;100159.47;;;-6.74;100.00
5814;BME280;2933;52.302;8.134;2022-11-20T04:14:20;100160.28;;;-6.82;100.00
5814;BME280;2933;52.302;8.134;2022-11-20T04:19:22;100146.66;;;-6.98;100.00
5814;BME280;2933;52.302;8.134;2022-11-20T04:24:23;100151.81;;;-6.82;100.00
5814;BME280;2933;52.302;8.134;2022-11-20T04:29:26;100142.38;;;-7.06;100.00
5814;BME280;2933;52.302;8.134;2022-11-20T04:34:28;100139.88;;;-7.00;100.00
5814;BME280;2933;52.302;8.134;2022-11-20T04:39:29;100143.31;;;-6.93;100.00
5814;BME280;2933;52.302;8.134;2022-11-20T04:44:32;100145.00;;;-6.86;100.00
5814;BME280;2933;52.302;8.134;2022-11-20T04:49:34;100147.50;;;-6.97;100.00
5814;BME280;2933;52.302;8.134;2022-11-20T04:54:35;100123.69;;;-7.16;100.00
5814;BME280;2933;52.302;8.134;2022-11-20T04:59:38;100148.34;;;-7.00;100.00
5814;BME280;2933;52.302;8.134;2022-11-20T05:04:39;100144.16;;;-6.87;100.00
5814;BME280;2933;52.302;8.134;2022-11-20T05:09:41;100148.34;;;-6.95;100.00
5814;BME280;2933;52.302;8.134;2022-11-20T05:14:44;100151.81;;;-6.84;100.00
5814;BME280;2933;52.302;8.134;2022-11-20T05:19:45;100144.91;;;-7.09;100.00
5814;BME280;2933;52.302;8.134;2022-11-20T05:24:47;100149.06;;;-7.18;100.00
5814;BME280;2933;52.302;8.134;2022-11-20T05:29:50;100137.31;;;-7.00;100.00
5814;BME280;2933;52.302;8.134;2022-11-20T05:34:51;100135.66;;;-6.96;100.00
5814;BME280;2933;52.302;8.134;2022-11-20T05:39:53;100128.94;;;-6.87;100.00
5814;BME280;2933;52.302;8.134;2022-11-20T05:44:56;100113.59;;;-7.04;100.00
5814;BME280;2933;52.302;8.134;2022-11-20T05:49:57;100103.38;;;-7.21;100.00
5814;BME280;2933;52.302;8.134;2022-11-20T05:54:59;100115.25;;;-7.17;100.00
5814;BME280;2933;52.302;8.134;2022-11-20T06:00:03;100112.00;;;-6.89;100.00
5814;BME280;2933;52.302;8.134;2022-11-20T06:05:05;100118.75;;;-6.93;100.00
5814;BME280;2933;52.302;8.134;2022-11-20T06:10:07;100102.56;;;-7.10;100.00
5814;BME280;2933;52.302;8.134;2022-11-20T06:15:10;100123.91;;;-6.76;100.00
5814;BME280;2933;52.302;8.134;2022-11-20T06:20:12;100119.63;;;-6.80;100.00
5814;BME280;2933;52.302;8.134;2022-11-20T06:25:14;100123.03;;;-6.79;100.00
5814;BME280;2933;52.302;8.134;2022-11-20T06:30:17;100103.53;;;-6.90;100.00
5814;BME280;2933;52.302;8.134;2022-11-20T06:35:18;100127.31;;;-6.71;100.00
5814;BME280;2933;52.302;8.134;2022-11-20T06:40:20;100071.28;;;-7.06;100.00
5814;BME280;2933;52.302;8.134;2022-11-20T06:45:23;100116.38;;;-6.42;100.00
5814;BME280;2933;52.302;8.134;2022-11-20T06:50:24;100123.16;;;-6.39;100.00
5814;BME280;2933;52.302;8.134;2022-11-20T06:55:26;100102.00;;;-6.34;100.00
5814;BME280;2933;52.302;8.134;2022-11-20T07:00:29;100112.22;;;-6.13;100.00
5814;BME280;2933;52.302;8.134;2022-11-20T07:05:30;100085.09;;;-6.24;100.00
5814;BME280;2933;52.302;8.134;2022-11-20T07:10:32;100078.31;;;-6.06;100.00
5814;BME280;2933;52.302;8.134;2022-11-20T07:15:35;100116.44;;;-5.85;100.00
5814;BME280;2933;52.302;8.134;2022-11-20T07:20:36;100118.97;;;-5.91;100.00
5814;BME280;2933;52.302;8.134;2022-11-20T07:25:38;100125.78;;;-5.77;100.00
5814;BME280;2933;52.302;8.134;2022-11-20T07:30:41;100130.00;;;-5.47;100.00
5814;BME280;2933;52.302;8.134;2022-11-20T07:35:42;100113.84;;;-5.23;100.00
5814;BME280;2933;52.302;8.134;2022-11-20T07:40:44;100084.19;;;-5.41;100.00
5814;BME280;2933;52.302;8.134;2022-11-20T07:45:47;100112.06;;;-4.99;100.00
5814;BME280;2933;52.302;8.134;2022-11-20T07:50:48;100073.94;;;-5.30;100.00
5814;BME280;2933;52.302;8.134;2022-11-20T07:55:50;100103.59;;;-5.03;100.00
5814;BME280;2933;52.302;8.134;2022-11-20T08:00:54;100084.94;;;-5.12;100.00
5814;BME280;2933;52.302;8.134;2022-11-20T08:05:58;100127.38;;;-5.04;100.00
5814;BME280;2933;52.302;8.134;2022-11-20T08:10:59;100101.03;;;-4.93;100.00
5814;BME280;2933;52.302;8.134;2022-11-20T08:16:16;100084.00;;;-4.88;100.00
5814;BME280;2933;52.302;8.134;2022-11-20T08:21:18;100082.28;;;-4.83;100.00
5814;BME280;2933;52.302;8.134;2022-11-20T08:26:20;100100.09;;;-4.75;100.00
5814;BME280;2933;52.302;8.134;2022-11-20T08:31:25;100081.38;;;-4.65;100.00
5814;BME280;2933;52.302;8.134;2022-11-20T08:36:27;100102.53;;;-4.50;100.00
5814;BME280;2933;52.302;8.134;2022-11-20T08:41:28;100105.91;;;-4.44;100.00
5814;BME280;2933;52.302;8.134;2022-11-20T08:46:35;100114.34;;;-4.35;100.00
5814;BME280;2933;52.302;8.134;2022-11-20T08:51:38;100119.44;;;-4.34;100.00
5814;BME280;2933;52.302;8.134;2022-11-20T08:56:39;100110.78;;;-4.13;100.00
5814;BME280;2933;52.302;8.134;2022-11-20T09:01:42;100125.22;;;-4.02;100.00
5814;BME280;2933;52.302;8.134;2022-11-20T09:06:44;100065.84;;;-4.26;100.00
5814;BME280;2933;52.302;8.134;2022-11-20T09:11:45;100102.94;;;-3.83;100.00
5814;BME280;2933;52.302;8.134;2022-11-20T09:16:48;100098.59;;;-3.72;100.00
5814;BME280;2933;52.302;8.134;2022-11-20T09:21:50;100082.50;;;-3.82;100.00
5814;BME280;2933;52.302;8.134;2022-11-20T09:26:51;100102.72;;;-3.57;100.00
5814;BME280;2933;52.302;8.134;2022-11-20T09:31:54;100100.09;;;-3.48;100.00
5814;BME280;2933;52.302;8.134;2022-11-20T09:36:56;100103.41;;;-3.38;100.00
5814;BME280;2933;52.302;8.134;2022-11-20T09:42:22;100113.63;;;-3.38;100.00
5814;BME280;2933;52.302;8.134;2022-11-20T09:47:48;100108.44;;;-3.30;100.00
5814;BME280;2933;52.302;8.134;2022-11-20T09:53:04;100092.03;;;-3.09;100.00
5814;BME280;2933;52.302;8.134;2022-11-20T09:58:16;100107.38;;;-3.09;100.00
5814;BME280;2933;52.302;8.134;2022-11-20T10:03:33;100047.22;;;-3.41;100.00
5814;BME280;2933;52.302;8.134;2022-11-20T10:08:41;100093.63;;;-3.00;100.00
5814;BME280;2933;52.302;8.134;2022-11-20T10:13:52;100085.94;;;-2.96;100.00
5814;BME280;2933;52.302;8.134;2022-11-20T10:19:11;100096.22;;;-3.02;100.00
5814;BME280;2933;52.302;8.134;2022-11-20T10:24:43;100085.78;;;-2.83;100.00
5814;BME280;2933;52.302;8.134;2022-11-20T10:29:52;100074.41;;;-2.61;100.00
5814;BME280;2933;52.302;8.134;2022-11-20T10:35:01;100030.97;;;-2.65;100.00
5814;BME280;2933;52.302;8.134;2022-11-20T10:40:18;100064.59;;;-2.31;100.00
5814;BME280;2933;52.302;8.134;2022-11-20T10:45:33;100015.19;;;-2.34;100.00
5814;BME280;2933;52.302;8.134;2022-11-20T10:50:45;100041.38;;;-2.18;100.00
5814;BME280;2933;52.302;8.134;2022-11-20T10:55:54;100051.47;;;-2.09;100.00
5814;BME280;2933;52.302;8.134;2022-11-20T11:01:04;100004.94;;;-2.31;100.00
5814;BME280;2933;52.302;8.134;2022-11-20T11:06:12;99989.63;;;-2.36;100.00
5814;BME280;2933;52.302;8.134;2022-11-20T11:11:21;100035.78;;;-1.87;100.00
5814;BME280;2933;52.302;8.134;2022-11-20T11:16:26;100034.94;;;-1.89;100.00
5814;BME280;2933;52.302;8.134;2022-11-20T11:21:29;100025.44;;;-1.81;100.00
5814;BME280;2933;52.302;8.134;2022-11-20T11:26:31;100026.91;;;-1.68;100.00
5814;BME280;2933;52.302;8.134;2022-11-20T11:31:34;99958.94;;;-1.86;100.00
5814;BME280;2933;52.302;8.134;2022-11-20T11:36:37;99994.25;;;-1.58;100.00
5814;BME280;2933;52.302;8.134;2022-11-20T11:41:39;100006.72;;;-1.38;100.00
5814;BME280;2933;52.302;8.134;2022-11-20T11:46:49;99988.66;;;-1.33;100.00
5814;BME280;2933;52.302;8.134;2022-11-20T11:52:02;99995.19;;;-1.18;100.00
5814;BME280;2933;52.302;8.134;2022-11-20T11:57:12;99992.13;;;-1.36;100.00
5814;BME280;2933;52.302;8.134;2022-11-20T12:02:28;99972.59;;;-1.40;100.00
5814;BME280;2933;52.302;8.134;2022-11-20T12:07:39;99979.53;;;-1.45;100.00
5814;BME280;2933;52.302;8.134;2022-11-20T12:12:44;99970.72;;;-1.32;100.00
5814;BME280;2933;52.302;8.134;2022-11-20T12:17:46;99951.41;;;-1.07;100.00
5814;BME280;2933;52.302;8.134;2022-11-20T12:22:55;99958.66;;;-0.87;100.00
5814;BME280;2933;52.302;8.134;2022-11-20T12:28:18;99961.41;;;-0.95;100.00
5814;BME280;2933;52.302;8.134;2022-11-20T12:33:35;99957.44;;;-1.10;100.00
5814;BME280;2933;52.302;8.134;2022-11-20T12:39:07;99942.72;;;-1.00;100.00
5814;BME280;2933;52.302;8.134;2022-11-20T12:44:19;99938.03;;;-0.83;100.00
5814;BME280;2933;52.302;8.134;2022-11-20T12:49:50;99942.31;;;-0.82;100.00
5814;BME280;2933;52.302;8.134;2022-11-20T12:55:13;99947.56;;;-0.88;100.00
5814;BME280;2933;52.302;8.134;2022-11-20T13:00:18;99922.88;;;-0.93;100.00
5814;BME280;2933;52.302;8.134;2022-11-20T13:05:24;99895.88;;;-1.07;100.00
5814;BME280;2933;52.302;8.134;2022-11-20T13:10:35;99903.94;;;-0.86;100.00
5814;BME280;2933;52.302;8.134;2022-11-20T13:15:47;99919.13;;;-0.42;100.00
5814;BME280;2933;52.302;8.134;2022-11-20T13:20:51;99906.13;;;-0.35;100.00
5814;BME280;2933;52.302;8.134;2022-11-20T13:26:05;99908.28;;;-0.19;97.46
5814;BME280;2933;52.302;8.134;2022-11-20T13:31:28;99894.38;;;-0.10;96.78
5814;BME280;2933;52.302;8.134;2022-11-20T13:36:31;99889.66;;;-0.26;97.23
5814;BME280;2933;52.302;8.134;2022-11-20T13:41:37;99883.19;;;-0.41;99.51
5814;BME280;2933;52.302;8.134;2022-11-20T13:46:41;99872.19;;;-0.46;100.00
5814;BME280;2933;52.302;8.134;2022-11-20T13:51:46;99862.03;;;-0.51;100.00
5814;BME280;2933;52.302;8.134;2022-11-20T13:57:01;99860.59;;;-0.61;100.00
5814;BME280;2933;52.302;8.134;2022-11-20T14:02:10;99821.88;;;-0.86;100.00
5814;BME280;2933;52.302;8.134;2022-11-20T14:07:13;99835.94;;;-0.67;100.00
5814;BME280;2933;52.302;8.134;2022-11-20T14:12:19;99825.72;;;-0.70;100.00
5814;BME280;2933;52.302;8.134;2022-11-20T14:17:22;99822.44;;;-0.73;100.00
5814;BME280;2933;52.302;8.134;2022-11-20T14:22:26;99813.06;;;-0.76;100.00
5814;BME280;2933;52.302;8.134;2022-11-20T14:27:33;99790.38;;;-0.91;100.00
5814;BME280;2933;52.302;8.134;2022-11-20T14:32:35;99798.84;;;-0.88;100.00
5814;BME280;2933;52.302;8.134;2022-11-20T14:37:38;99809.13;;;-0.89;100.00
5814;BME280;2933;52.302;8.134;2022-11-20T14:42:43;99804.06;;;-0.92;100.00
5814;BME280;2933;52.302;8.134;2022-11-20T14:47:45;99754.50;;;-1.27;100.00
5814;BME280;2933;52.302;8.134;2022-11-20T14:52:52;99793.97;;;-0.99;100.00
5814;BME280;2933;52.302;8.134;2022-11-20T14:57:59;99770.25;;;-1.08;100.00
5814;BME280;2933;52.302;8.134;2022-11-20T15:03:01;99780.50;;;-1.07;100.00
5814;BME280;2933;52.302;8.134;2022-11-20T15:08:08;99776.53;;;-1.20;100.00
5814;BME280;2933;52.302;8.134;2022-11-20T15:13:13;99766.50;;;-1.30;100.00
5814;BME280;2933;52.302;8.134;2022-11-20T15:18:18;99742.84;;;-1.41;100.00
5814;BME280;2933;52.302;8.134;2022-11-20T15:23:22;99762.97;;;-1.24;100.00
5814;BME280;2933;52.302;8.134;2022-11-20T15:28:28;99749.44;;;-1.31;100.00
5814;BME280;2933;52.302;8.134;2022-11-20T15:33:30;99735.59;;;-1.23;100.00
5814;BME280;2933;52.302;8.134;2022-11-20T15:38:32;99757.84;;;-0.89;100.00
5814;BME280;2933;52.302;8.134;2022-11-20T15:43:35;99718.44;;;-1.20;100.00
5814;BME280;2933;52.302;8.134;2022-11-20T15:48:38;99742.63;;;-0.97;100.00
5814;BME280;2933;52.302;8.134;2022-11-20T15:53:41;99748.38;;;-0.87;100.00
5814;BME280;2933;52.302;8.134;2022-11-20T15:58:44;99750.06;;;-0.86;100.00
5814;BME280;2933;52.302;8.134;2022-11-20T16:03:46;99741.91;;;-1.01;100.00
5814;BME280;2933;52.302;8.134;2022-11-20T16:08:47;99731.75;;;-1.05;100.00
5814;BME280;2933;52.302;8.134;2022-11-20T16:13:50;99709.44;;;-1.02;100.00
5814;BME280;2933;52.302;8.134;2022-11-20T16:19:10;99706.84;;;-1.00;100.00
5814;BME280;2933;52.302;8.134;2022-11-20T16:24:13;99698.34;;;-1.02;100.00
5814;BME280;2933;52.302;8.134;2022-11-20T16:29:16;99696.47;;;-0.95;100.00
5814;BME280;2933;52.302;8.134;2022-11-20T16:34:18;99663.63;;;-1.14;100.00
5814;BME280;2933;52.302;8.134;2022-11-20T16:39:20;99674.66;;;-1.12;100.00
5814;BME280;2933;52.302;8.134;2022-11-20T16:44:22;99647.38;;;-1.15;100.00
5814;BME280;2933;52.302;8.134;2022-11-20T16:49:24;99647.53;;;-1.21;100.00
5814;BME280;2933;52.302;8.134;2022-11-20T16:54:26;99643.31;;;-1.22;100.00
5814;BME280;2933;52.302;8.134;2022-11-20T16:59:28;99638.97;;;-1.20;100.00
5814;BME280;2933;52.302;8.134;2022-11-20T17:04:30;99622.84;;;-1.23;100.00
5814;BME280;2933;52.302;8.134;2022-11-20T17:09:32;99637.22;;;-1.18;100.00
5814;BME280;2933;52.302;8.134;2022-11-20T17:14:35;99639.91;;;-1.22;100.00
5814;BME280;2933;52.302;8.134;2022-11-20T17:19:36;99633.78;;;-1.17;100.00
5814;BME280;2933;52.302;8.134;2022-11-20T17:24:38;99634.63;;;-1.16;100.00
5814;BME280;2933;52.302;8.134;2022-11-20T17:29:41;99622.81;;;-1.22;100.00
5814;BME280;2933;52.302;8.134;2022-11-20T17:34:42;99595.72;;;-1.32;100.00
5814;BME280;2933;52.302;8.134;2022-11-20T17:39:44;99615.63;;;-1.09;100.00
5814;BME280;2933;52.302;8.134;2022-11-20T17:44:47;99614.81;;;-1.09;100.00
5814;BME280;2933;52.302;8.134;2022-11-20T17:49:48;99618.19;;;-1.09;100.00
5814;BME280;2933;52.302;8.134;2022-11-20T17:54:50;99604.72;;;-1.17;100.00
5814;BME280;2933;52.302;8.134;2022-11-20T17:59:56;99577.69;;;-1.27;100.00
5814;BME280;2933;52.302;8.134;2022-11-20T18:04:57;99561.50;;;-1.30;100.00
5814;BME280;2933;52.302;8.134;2022-11-20T18:09:59;99578.16;;;-1.13;100.00
5814;BME280;2933;52.302;8.134;2022-11-20T18:15:02;99564.53;;;-1.15;100.00
5814;BME280;2933;52.302;8.134;2022-11-20T18:20:05;99528.19;;;-1.30;100.00
5814;BME280;2933;52.302;8.134;2022-11-20T18:25:08;99545.84;;;-1.19;100.00
5814;BME280;2933;52.302;8.134;2022-11-20T18:30:13;99549.97;;;-1.13;100.00
5814;BME280;2933;52.302;8.134;2022-11-20T18:35:15;99551.44;;;-1.04;100.00
5814;BME280;2933;52.302;8.134;2022-11-20T18:40:16;99563.50;;;-1.08;100.00
5814;BME280;2933;52.302;8.134;2022-11-20T18:45:19;99557.38;;;-1.04;100.00
5814;BME280;2933;52.302;8.134;2022-11-20T18:50:21;99554.69;;;-0.99;100.00
5814;BME280;2933;52.302;8.134;2022-11-20T18:55:23;99548.50;;;-0.92;100.00
5814;BME280;2933;52.302;8.134;2022-11-20T19:00:26;99526.22;;;-0.90;100.00
5814;BME280;2933;52.302;8.134;2022-11-20T19:05:28;99527.94;;;-0.90;100.00
5814;BME280;2933;52.302;8.134;2022-11-20T19:10:29;99532.97;;;-0.87;100.00
5814;BME280;2933;52.302;8.134;2022-11-20T19:15:33;99508.50;;;-0.98;100.00
5814;BME280;2933;52.302;8.134;2022-11-20T19:20:36;99505.88;;;-0.96;100.00
5814;BME280;2933;52.302;8.134;2022-11-20T19:25:37;99473.94;;;-1.14;100.00
5814;BME280;2933;52.302;8.134;2022-11-20T19:30:40;99491.38;;;-0.97;100.00
5814;BME280;2933;52.302;8.134;2022-11-20T19:35:42;99484.66;;;-1.01;100.00
5814;BME280;2933;52.302;8.134;2022-11-20T19:40:44;99479.66;;;-1.04;100.00
5814;BME280;2933;52.302;8.134;2022-11-20T19:45:46;99466.16;;;-1.11;100.00
5814;BME280;2933;52.302;8.134;2022-11-20T19:50:48;99465.28;;;-1.10;100.00
5814;BME280;2933;52.302;8.134;2022-11-20T19:55:56;99442.38;;;-1.16;100.00
5814;BME280;2933;52.302;8.134;2022-11-20T20:01:06;99450.69;;;-1.08;100.00
5814;BME280;2933;52.302;8.134;2022-11-20T20:06:09;99453.97;;;-1.03;100.00
5814;BME280;2933;52.302;8.134;2022-11-20T20:11:14;99447.25;;;-1.07;100.00
5814;BME280;2933;52.302;8.134;2022-11-20T20:16:20;99442.22;;;-1.10;100.00
5814;BME280;2933;52.302;8.134;2022-11-20T20:21:22;99435.28;;;-1.06;100.00
5814;BME280;2933;52.302;8.134;2022-11-20T20:26:25;99427.88;;;-1.17;100.00
5814;BME280;2933;52.302;8.134;2022-11-20T20:31:30;99423.50;;;-1.14;100.00
5814;BME280;2933;52.302;8.134;2022-11-20T20:36:32;99412.50;;;-1.17;100.00
5814;BME280;2933;52.302;8.134;2022-11-20T20:41:34;99400.88;;;-1.27;100.00
5814;BME280;2933;52.302;8.134;2022-11-20T20:46:37;99395.78;;;-1.29;100.00
5814;BME280;2933;52.302;8.134;2022-11-20T20:51:38;99405.69;;;-1.18;100.00
5814;BME280;2933;52.302;8.134;2022-11-20T20:56:40;99403.31;;;-1.24;100.00
5814;BME280;2933;52.302;8.134;2022-11-20T21:01:43;99395.75;;;-1.27;100.00
5814;BME280;2933;52.302;8.134;2022-11-20T21:06:44;99391.31;;;-1.22;100.00
5814;BME280;2933;52.302;8.134;2022-11-20T21:11:46;99380.50;;;-1.32;100.00
5814;BME280;2933;52.302;8.134;2022-11-20T21:16:49;99394.72;;;-1.22;100.00
5814;BME280;2933;52.302;8.134;2022-11-20T21:21:50;99382.81;;;-1.24;100.00
5814;BME280;2933;52.302;8.134;2022-11-20T21:27:04;99361.81;;;-1.36;100.00
5814;BME280;2933;52.302;8.134;2022-11-20T21:32:07;99370.94;;;-1.27;100.00
5814;BME280;2933;52.302;8.134;2022-11-20T21:37:08;99363.41;;;-1.32;100.00
5814;BME280;2933;52.302;8.134;2022-11-20T21:42:10;99371.88;;;-1.30;100.00
5814;BME280;2933;52.302;8.134;2022-11-20T21:47:12;99376.81;;;-1.23;100.00
5814;BME280;2933;52.302;8.134;2022-11-20T21:52:14;99367.56;;;-1.27;100.00
5814;BME280;2933;52.302;8.134;2022-11-20T21:57:15;99347.34;;;-1.37;100.00
5814;BME280;2933;52.302;8.134;2022-11-20T22:02:18;99377.00;;;-1.30;100.00
5814;BME280;2933;52.302;8.134;2022-11-20T22:07:21;99347.00;;;-1.54;100.00
5814;BME280;2933;52.302;8.134;2022-11-20T22:12:22;99369.56;;;-1.37;100.00
5814;BME280;2933;52.302;8.134;2022-11-20T22:17:25;99378.03;;;-1.35;100.00
5814;BME280;2933;52.302;8.134;2022-11-20T22:22:41;99368.53;;;-1.32;100.00
5814;BME280;2933;52.302;8.134;2022-11-20T22:27:44;99377.06;;;-1.31;100.00
5814;BME280;2933;52.302;8.134;2022-11-20T22:32:48;99397.59;;;-1.33;100.00
5814;BME280;2933;52.302;8.134;2022-11-20T22:37:53;99380.72;;;-1.40;100.00
5814;BME280;2933;52.302;8.134;2022-11-20T22:42:54;99394.41;;;-1.41;100.00
5814;BME280;2933;52.302;8.134;2022-11-20T22:47:57;99401.97;;;-1.36;100.00
5814;BME280;2933;52.302;8.134;2022-11-20T22:52:59;99404.50;;;-1.35;100.00
5814;BME280;2933;52.302;8.134;2022-11-20T22:58:01;99393.41;;;-1.35;100.00
5814;BME280;2933;52.302;8.134;2022-11-20T23:03:03;99404.59;;;-1.38;100.00
5814;BME280;2933;52.302;8.134;2022-11-20T23:08:05;99407.94;;;-1.36;100.00
5814;BME280;2933;52.302;8.134;2022-11-20T23:13:06;99408.78;;;-1.35;100.00
5814;BME280;2933;52.302;8.134;2022-11-20T23:18:10;99409.56;;;-1.33;100.00
5814;BME280;2933;52.302;8.134;2022-11-20T23:23:11;99415.44;;;-1.30;100.00
5814;BME280;2933;52.302;8.134;2022-11-20T23:28:13;99415.44;;;-1.30;100.00
5814;BME280;2933;52.302;8.134;2022-11-20T23:33:16;99419.75;;;-1.30;100.00
5814;BME280;2933;52.302;8.134;2022-11-20T23:38:17;99416.19;;;-1.26;100.00
5814;BME280;2933;52.302;8.134;2022-11-20T23:43:20;99389.91;;;-1.33;100.00
5814;BME280;2933;52.302;8.134;2022-11-20T23:48:25;99378.41;;;-1.48;100.00
5814;BME280;2933;52.302;8.134;2022-11-20T23:53:27;99412.09;;;-1.32;100.00
5814;BME280;2933;52.302;8.134;2022-11-20T23:58:31;99413.03;;;-1.34;100.00
